Time;durP1;ratioP1;P1;durP2;ratioP2;P2;SDS_P1;SDS_P2;PMS_P1;PMS_P2;Temp;Humidity;BMP_temperature;BMP_pressure;BME280_temperature;BME280_humidity;BME280_pressure;Samples;Min_cycle;Max_cycle;Signal;HPM_P1;HPM_P2
2022/04/28 00:00:32;;;;;;;12.38;6.20;;;;;;;8.23;62.20;102832.72;5077734;28;20040;-78
2022/04/28 00:02:58;;;;;;;12.73;5.88;;;;;;;8.22;62.51;102830.91;5065305;28;20235;-78
2022/04/28 00:05:24;;;;;;;11.43;6.18;;;;;;;8.21;62.51;102834.31;5062758;28;20036;-78
2022/04/28 00:07:50;;;;;;;11.10;6.55;;;;;;;8.18;62.52;102832.41;5060237;28;20286;-78
2022/04/28 00:10:16;;;;;;;13.27;6.43;;;;;;;8.08;62.66;102833.53;5062072;28;20039;-78
2022/04/28 00:12:41;;;;;;;15.25;7.43;;;;;;;8.08;62.77;102838.72;5078570;28;20017;-78
2022/04/28 00:15:07;;;;;;;14.00;6.47;;;;;;;8.07;62.62;102839.50;5063065;28;20029;-78
2022/04/28 00:17:33;;;;;;;11.48;6.47;;;;;;;8.01;62.43;102849.50;5074441;28;20204;-79
2022/04/28 00:19:58;;;;;;;9.02;6.10;;;;;;;8.00;62.68;102845.97;5063090;28;20036;-79
2022/04/28 00:22:24;;;;;;;13.27;6.38;;;;;;;7.97;62.69;102845.78;5062925;28;20187;-79
2022/04/28 00:24:50;;;;;;;11.30;6.15;;;;;;;7.93;62.84;102845.47;5067776;28;20044;-79
2022/04/28 00:27:15;;;;;;;13.20;6.38;;;;;;;7.86;62.72;102844.16;5061464;28;20029;-79
2022/04/28 00:29:40;;;;;;;11.38;5.97;;;;;;;7.81;62.67;102849.03;5050994;28;20036;-79
2022/04/28 00:32:06;;;;;;;11.57;6.00;;;;;;;7.78;62.66;102851.44;5062377;28;20280;-79
2022/04/28 00:34:31;;;;;;;13.68;6.32;;;;;;;7.71;62.79;102841.44;5062949;28;20031;-79
2022/04/28 00:36:57;;;;;;;11.70;6.30;;;;;;;7.66;62.87;102842.81;5062934;28;20175;-78
2022/04/28 00:39:22;;;;;;;11.63;6.05;;;;;;;7.61;63.23;102834.72;5047057;28;20268;-79
2022/04/28 00:41:47;;;;;;;13.70;6.68;;;;;;;7.59;63.47;102835.41;5055660;28;20056;-79
2022/04/28 00:44:13;;;;;;;12.18;6.82;;;;;;;7.59;63.80;102833.72;5063187;28;20052;-79
2022/04/28 00:46:42;;;;;;;14.30;6.00;;;;;;;7.52;63.71;102834.09;5063068;28;20029;-78
2022/04/28 00:52:11;;;;;;;11.93;6.40;;;;;;;7.45;63.82;102835.38;5058149;28;20083;-78
2022/04/28 00:54:37;;;;;;;12.75;6.18;;;;;;;7.43;63.73;102836.97;5053805;28;20036;-78
2022/04/28 00:57:02;;;;;;;10.60;6.50;;;;;;;7.41;63.66;102835.06;5054425;28;20041;-78
2022/04/28 00:59:29;;;;;;;11.10;6.15;;;;;;;7.35;63.63;102829.47;5053105;28;20037;-78
2022/04/28 01:01:54;;;;;;;10.30;6.50;;;;;;;7.29;64.16;102828.22;5060184;28;20028;-78
2022/04/28 01:04:20;;;;;;;12.02;6.47;;;;;;;7.28;64.42;102828.13;5053323;28;20048;-78
2022/04/28 01:06:45;;;;;;;12.90;6.50;;;;;;;7.25;64.06;102830.50;5057174;28;20037;-78
2022/04/28 01:09:11;;;;;;;13.55;7.05;;;;;;;7.21;64.10;102832.00;5062736;28;20029;-78
2022/04/28 01:11:39;;;;;;;10.68;6.20;;;;;;;7.23;65.08;102827.81;5062314;28;20207;-78
2022/04/28 01:14:04;;;;;;;13.70;6.28;;;;;;;7.19;64.62;102827.50;5062797;28;20175;-78
2022/04/28 01:16:30;;;;;;;10.80;5.97;;;;;;;7.17;64.38;102832.59;5079284;28;20063;-79
2022/04/28 01:18:55;;;;;;;11.82;6.38;;;;;;;7.19;65.31;102830.09;5064970;28;20238;-79
2022/04/28 01:21:20;;;;;;;10.57;6.72;;;;;;;7.20;65.50;102834.47;5066138;28;20025;-79
2022/04/28 01:23:46;;;;;;;13.82;6.75;;;;;;;7.17;64.26;102834.25;5066640;28;20158;-79
2022/04/28 01:26:14;;;;;;;13.02;6.80;;;;;;;7.14;64.74;102835.84;5066178;28;20070;-79
2022/04/28 01:28:39;;;;;;;11.20;6.80;;;;;;;7.09;64.25;102832.03;5065987;28;20048;-79
2022/04/28 01:31:05;;;;;;;13.10;6.72;;;;;;;7.09;64.46;102841.50;5062937;28;20032;-79
2022/04/28 01:33:31;;;;;;;9.82;6.63;;;;;;;7.05;64.16;102832.59;5063485;28;20045;-79
2022/04/28 01:35:56;;;;;;;11.75;6.47;;;;;;;7.07;65.17;102837.91;5054566;28;20028;-79
2022/04/28 01:38:22;;;;;;;10.18;6.45;;;;;;;7.04;65.07;102843.78;5065688;28;20150;-80
2022/04/28 01:40:47;;;;;;;12.15;6.97;;;;;;;7.00;64.58;102844.34;5065893;28;20025;-79
2022/04/28 01:43:13;;;;;;;11.38;6.80;;;;;;;6.98;65.10;102848.53;5080628;28;20259;-79
2022/04/28 01:45:38;;;;;;;12.48;6.65;;;;;;;6.90;64.44;102844.50;5065944;28;20033;-79
2022/04/28 01:48:04;;;;;;;11.55;6.32;;;;;;;6.83;64.34;102840.56;5065705;28;20047;-80
2022/04/28 01:50:29;;;;;;;11.98;6.68;;;;;;;6.81;65.16;102841.22;5064709;28;20029;-80
2022/04/28 01:55:38;;;;;;;11.80;6.90;;;;;;;6.75;66.23;102833.97;5065662;28;20302;-79
2022/04/28 01:58:04;;;;;;;15.70;6.65;;;;;;;6.75;66.40;102829.66;5061898;28;20084;-78
2022/04/28 02:00:29;;;;;;;12.30;6.45;;;;;;;6.76;66.78;102833.13;5064444;28;20091;-79
2022/04/28 02:02:54;;;;;;;12.45;6.53;;;;;;;6.77;66.55;102838.44;5065609;28;20171;-79
2022/04/28 02:05:20;;;;;;;14.70;7.05;;;;;;;6.76;66.80;102834.06;5065440;28;20169;-79
2022/04/28 02:07:45;;;;;;;11.90;6.78;;;;;;;6.75;66.07;102837.44;5065346;28;20025;-80
2022/04/28 02:10:11;;;;;;;11.25;6.78;;;;;;;6.72;66.23;102839.81;5065066;28;20025;-79
2022/04/28 02:12:37;;;;;;;14.85;6.90;;;;;;;6.66;66.21;102844.53;5079737;28;20180;-80
2022/04/28 02:15:03;;;;;;;12.82;6.60;;;;;;;6.65;66.61;102839.25;5065038;28;20033;-79
2022/04/28 02:17:28;;;;;;;12.57;6.85;;;;;;;6.62;65.93;102847.72;5065068;28;20120;-79
2022/04/28 02:19:54;;;;;;;16.33;7.95;;;;;;;6.57;66.63;102851.66;5065049;28;20974;-79
2022/04/28 02:22:20;;;;;;;12.75;7.45;;;;;;;6.59;66.85;102844.91;5080492;28;20024;-79
2022/04/28 02:24:47;;;;;;;14.07;7.20;;;;;;;6.65;67.38;102845.34;5064112;28;20037;-79
2022/04/28 02:27:13;;;;;;;17.85;7.78;;;;;;;6.61;67.06;102845.91;5064464;28;20021;-79
2022/04/28 02:29:38;;;;;;;14.60;6.97;;;;;;;6.60;66.84;102844.09;5064846;28;20071;-79
2022/04/28 02:32:04;;;;;;;13.32;7.13;;;;;;;6.60;66.72;102841.50;5064971;28;20029;-79
2022/04/28 02:34:29;;;;;;;13.48;6.93;;;;;;;6.61;66.99;102840.72;5080099;28;20025;-79
2022/04/28 02:36:55;;;;;;;14.10;6.82;;;;;;;6.59;66.97;102832.84;5064893;28;20263;-79
2022/04/28 02:39:20;;;;;;;11.65;6.70;;;;;;;6.56;66.90;102836.88;5061827;28;20037;-79
2022/04/28 02:41:47;;;;;;;14.75;7.18;;;;;;;6.58;67.09;102840.50;5064912;28;20267;-79
2022/04/28 02:44:13;;;;;;;13.65;7.65;;;;;;;6.58;66.79;102841.41;5080237;28;20041;-79
2022/04/28 02:46:48;;;;;;;14.77;7.55;;;;;;;6.59;67.09;102831.97;5063449;28;20100;-79
2022/04/28 02:49:14;;;;;;;14.38;7.65;;;;;;;6.58;67.40;102832.75;5064638;28;20032;-78
2022/04/28 02:51:39;;;;;;;14.02;7.68;;;;;;;6.53;67.09;102839.25;5064008;28;20025;-78
2022/04/28 02:54:05;;;;;;;12.57;6.93;;;;;;;6.49;67.59;102832.97;5079677;28;20047;-78
2022/04/28 02:56:31;;;;;;;12.57;6.88;;;;;;;6.48;67.28;102838.03;5063531;28;20195;-78
2022/04/28 02:58:56;;;;;;;11.18;6.90;;;;;;;6.50;67.65;102839.03;5064209;28;20067;-78
2022/04/28 03:01:22;;;;;;;11.75;7.45;;;;;;;6.46;67.32;102839.59;5063048;28;20017;-78
2022/04/28 03:03:48;;;;;;;13.82;7.35;;;;;;;6.41;67.49;102834.97;5064245;28;20283;-78
2022/04/28 03:11:41;;;;;;;14.45;7.28;;;;;;;6.33;67.65;102836.13;5064070;28;20192;-78
2022/04/28 03:14:07;;;;;;;15.15;7.53;;;;;;;6.32;67.56;102841.22;5064041;28;20025;-78
2022/04/28 03:16:32;;;;;;;13.60;7.50;;;;;;;6.31;67.38;102836.81;5064269;28;20036;-79
2022/04/28 03:18:58;;;;;;;13.13;7.32;;;;;;;6.31;66.88;102840.28;5060678;28;20064;-79
2022/04/28 03:21:23;;;;;;;11.65;6.97;;;;;;;6.32;67.49;102838.63;5062661;28;20226;-79
2022/04/28 03:23:48;;;;;;;13.90;7.30;;;;;;;6.30;67.46;102841.09;5063947;28;20309;-79
2022/04/28 03:26:13;;;;;;;12.82;7.18;;;;;;;6.25;67.52;102839.84;5078929;28;20032;-79
2022/04/28 03:28:39;;;;;;;14.55;6.90;;;;;;;6.24;67.71;102838.03;5063400;28;20582;-79
2022/04/28 03:31:05;;;;;;;12.52;7.57;;;;;;;6.20;67.35;102842.09;5063540;28;20029;-79
2022/04/28 03:33:32;;;;;;;13.18;7.35;;;;;;;6.19;67.27;102834.22;5079361;28;20013;-79
2022/04/28 03:35:57;;;;;;;16.02;7.45;;;;;;;6.20;68.04;102844.69;5075559;28;20302;-79
2022/04/28 03:38:23;;;;;;;14.52;7.50;;;;;;;6.17;68.01;102835.78;5062978;28;20029;-79
2022/04/28 03:40:48;;;;;;;12.48;7.60;;;;;;;6.16;68.10;102841.78;5063240;28;20032;-79
2022/04/28 03:43:14;;;;;;;15.80;8.23;;;;;;;6.16;68.04;102852.13;5061819;28;20029;-79
2022/04/28 03:45:40;;;;;;;14.68;7.82;;;;;;;6.12;68.18;102844.91;5063609;28;20048;-79
2022/04/28 03:48:10;;;;;;;14.80;7.88;;;;;;;6.09;68.21;102843.00;5063435;28;20028;-79
2022/04/28 03:50:38;;;;;;;14.07;7.68;;;;;;;6.09;67.71;102846.47;5063929;28;20347;-79
2022/04/28 03:53:05;;;;;;;12.43;7.05;;;;;;;6.07;67.73;102842.88;5063607;28;20134;-80
2022/04/28 03:55:30;;;;;;;12.73;7.40;;;;;;;6.04;68.23;102847.84;5058363;28;20017;-79
2022/04/28 03:57:56;;;;;;;14.82;7.55;;;;;;;6.02;68.14;102851.09;5062897;28;20066;-79
2022/04/28 04:00:22;;;;;;;13.52;7.22;;;;;;;5.98;67.63;102855.16;5063269;28;20302;-79
2022/04/28 04:02:48;;;;;;;16.27;7.97;;;;;;;5.95;68.17;102852.25;5078620;28;20044;-79
2022/04/28 04:05:13;;;;;;;13.95;7.72;;;;;;;5.90;67.88;102862.28;5063011;28;20083;-79
2022/04/28 04:07:39;;;;;;;15.48;7.70;;;;;;;5.90;68.08;102866.56;5063076;28;20206;-79
2022/04/28 04:10:10;;;;;;;14.00;7.75;;;;;;;5.87;68.04;102864.63;5062390;28;20221;-79
2022/04/28 04:12:35;;;;;;;13.02;7.55;;;;;;;5.86;68.40;102861.94;5062986;28;20123;-79
2022/04/28 04:15:01;;;;;;;16.25;7.72;;;;;;;5.89;68.32;102860.50;5063075;28;20033;-79
2022/04/28 04:17:27;;;;;;;13.25;7.88;;;;;;;5.86;68.52;102873.19;5062886;28;20327;-79
2022/04/28 04:19:52;;;;;;;15.88;7.78;;;;;;;5.83;68.90;102857.44;5078608;28;20060;-79
2022/04/28 04:22:17;;;;;;;16.55;8.57;;;;;;;5.86;69.49;102867.09;5078279;28;20021;-79
2022/04/28 04:24:43;;;;;;;16.30;8.10;;;;;;;5.85;69.21;102862.72;5059935;28;20037;-79
2022/04/28 04:27:09;;;;;;;14.25;8.43;;;;;;;5.82;69.51;102857.31;5062809;28;20029;-79
2022/04/28 04:29:35;;;;;;;13.52;8.00;;;;;;;5.78;69.04;102858.78;5063298;28;20021;-79
2022/04/28 04:32:20;;;;;;;14.38;8.25;;;;;;;5.79;68.57;102867.44;5062927;28;20032;-79
2022/04/28 04:34:47;;;;;;;14.20;7.80;;;;;;;5.78;68.22;102860.44;5060288;28;20025;-79
2022/04/28 04:37:12;;;;;;;15.88;8.25;;;;;;;5.74;68.91;102867.09;5061704;28;20218;-79
2022/04/28 04:39:38;;;;;;;14.70;8.55;;;;;;;5.71;68.96;102870.34;5062826;28;20020;-79
2022/04/28 04:42:04;;;;;;;18.15;8.52;;;;;;;5.72;69.83;102863.47;5062615;28;20052;-79
2022/04/28 04:44:29;;;;;;;13.73;7.60;;;;;;;5.70;69.39;102873.69;5062850;28;20061;-79
2022/04/28 04:46:54;;;;;;;17.65;8.30;;;;;;;5.70;70.01;102873.69;5062762;28;20324;-79
2022/04/28 04:49:20;;;;;;;14.68;7.85;;;;;;;5.69;69.57;102874.50;5062051;28;20203;-79
2022/04/28 04:51:45;;;;;;;16.30;9.10;;;;;;;5.72;69.96;102885.09;5066311;28;20036;-79
2022/04/28 04:54:11;;;;;;;20.52;10.25;;;;;;;5.73;69.85;102880.78;5066930;28;20033;-79
2022/04/28 04:56:36;;;;;;;20.42;10.25;;;;;;;5.74;69.82;102891.25;5082372;28;20024;-79
2022/04/28 04:59:03;;;;;;;23.27;11.13;;;;;;;5.79;70.41;102888.13;5066666;28;20072;-79
2022/04/28 05:01:29;;;;;;;24.35;10.48;;;;;;;5.77;70.81;102890.59;5061445;28;20020;-79
2022/04/28 05:03:54;;;;;;;17.88;9.80;;;;;;;5.80;70.88;102893.41;5080229;28;20206;-79
2022/04/28 05:06:20;;;;;;;16.77;9.15;;;;;;;5.82;71.32;102893.53;5065461;28;20074;-79
2022/04/28 05:08:45;;;;;;;14.32;8.75;;;;;;;5.84;71.29;102887.69;5066659;28;20234;-80
2022/04/28 05:11:10;;;;;;;17.00;8.77;;;;;;;5.87;71.75;102892.22;5066499;28;20073;-79
2022/04/28 05:13:36;;;;;;;17.70;8.88;;;;;;;5.90;71.36;102897.59;5065931;28;20028;-79
2022/04/28 05:16:01;;;;;;;18.58;8.38;;;;;;;5.96;71.53;102902.34;5066341;28;20021;-79
2022/04/28 05:18:30;;;;;;;15.23;8.38;;;;;;;6.02;71.50;102913.19;5065814;28;20453;-79
2022/04/28 05:20:55;;;;;;;16.23;8.40;;;;;;;6.04;71.22;102909.94;5066324;28;20037;-79
2022/04/28 05:23:20;;;;;;;17.35;8.65;;;;;;;6.05;71.64;102919.50;5057051;28;20040;-79
2022/04/28 05:25:46;;;;;;;14.38;8.55;;;;;;;6.08;71.16;102918.81;5066193;28;20021;-79
2022/04/28 05:28:12;;;;;;;16.17;8.88;;;;;;;6.10;71.11;102914.69;5066366;28;20029;-79
2022/04/28 05:30:37;;;;;;;17.02;8.50;;;;;;;6.13;71.15;102911.44;5064988;28;20017;-79
2022/04/28 05:33:02;;;;;;;15.70;8.70;;;;;;;6.15;71.63;102921.09;5066040;28;20028;-79
2022/04/28 05:35:28;;;;;;;15.85;8.60;;;;;;;6.17;71.90;102926.38;5065832;28;20232;-79
2022/04/28 05:37:54;;;;;;;17.75;8.73;;;;;;;6.19;72.13;102924.81;5080438;28;20108;-79
2022/04/28 05:40:20;;;;;;;16.88;9.20;;;;;;;6.21;72.44;102931.00;5065314;28;20024;-79
2022/04/28 05:45:43;;;;;;;19.25;9.23;;;;;;;6.29;72.68;102927.31;5065854;28;20028;-79
2022/04/28 05:48:13;;;;;;;17.05;8.50;;;;;;;6.35;72.89;102940.69;5051557;28;20033;-79
2022/04/28 05:50:39;;;;;;;16.95;8.88;;;;;;;6.41;72.74;102940.25;5081414;28;20035;-79
2022/04/28 05:53:04;;;;;;;18.10;9.25;;;;;;;6.48;73.02;102946.81;5065989;28;20232;-79
2022/04/28 05:55:30;;;;;;;17.63;8.82;;;;;;;6.54;72.89;102940.38;5065541;28;20264;-78
2022/04/28 05:57:59;;;;;;;16.50;9.10;;;;;;;6.59;72.73;102945.94;5065558;28;20155;-79
2022/04/28 06:00:28;;;;;;;18.17;9.60;;;;;;;6.67;72.62;102951.66;5065057;28;20171;-79
2022/04/28 06:02:54;;;;;;;;;;;;;;;6.79;70.88;102942.19;5058011;28;20029;-79
2022/04/28 06:05:19;;;;;;;17.10;8.77;;;;;;;6.82;72.97;102947.56;5064988;28;19909;-79
2022/04/28 06:07:45;;;;;;;19.23;9.15;;;;;;;6.88;72.90;102945.44;5064806;28;20053;-79
2022/04/28 06:10:12;;;;;;;17.25;10.07;;;;;;;6.97;72.80;102955.59;5065188;28;20095;-79
2022/04/28 06:12:37;;;;;;;18.85;9.52;;;;;;;7.02;73.54;102954.22;5065215;28;20097;-80
2022/04/28 06:15:03;;;;;;;20.70;10.00;;;;;;;7.10;73.16;102958.25;5062105;28;20171;-79
2022/04/28 06:17:28;;;;;;;21.05;10.10;;;;;;;7.28;73.17;102960.38;5070748;28;20456;-79
2022/04/28 06:19:54;;;;;;;18.88;9.65;;;;;;;7.66;72.43;102962.16;5065345;28;20533;-79
2022/04/28 06:22:19;;;;;;;18.77;10.60;;;;;;;8.26;70.99;102967.97;5059355;28;20037;-79
2022/04/28 06:24:44;;;;;;;20.52;10.43;;;;;;;8.94;69.25;102964.66;5060281;28;20160;-79
2022/04/28 06:27:10;;;;;;;17.40;9.65;;;;;;;9.54;67.46;102961.53;5065065;28;20036;-79
2022/04/28 06:29:35;;;;;;;18.02;10.07;;;;;;;10.00;65.69;102967.75;5064968;28;20020;-79
2022/04/28 06:32:00;;;;;;;18.75;9.93;;;;;;;10.47;63.51;102969.72;5056366;28;20021;-79
2022/04/28 06:34:25;;;;;;;18.33;9.45;;;;;;;10.68;62.58;102974.38;5064915;28;20036;-79
2022/04/28 06:36:51;;;;;;;18.52;9.88;;;;;;;10.69;62.05;102971.84;5062561;28;20088;-79
2022/04/28 06:39:16;;;;;;;21.23;9.65;;;;;;;10.63;60.74;102975.78;5064801;28;20025;-79
2022/04/28 06:41:41;;;;;;;17.83;9.90;;;;;;;10.55;62.39;102967.53;5064773;28;20029;-79
2022/04/28 06:44:07;;;;;;;18.55;10.13;;;;;;;10.46;62.77;102967.91;5080220;28;20029;-79
2022/04/28 06:46:32;;;;;;;20.25;10.27;;;;;;;10.39;61.27;102970.97;5060218;28;20264;-79
2022/04/28 06:48:57;;;;;;;17.77;9.68;;;;;;;10.27;63.15;102972.00;5055351;28;20226;-80
2022/04/28 06:51:23;;;;;;;21.85;10.80;;;;;;;10.22;61.62;102972.53;5064442;28;20028;-80
2022/04/28 06:53:49;;;;;;;18.08;9.70;;;;;;;10.18;61.51;102974.06;5063443;28;20029;-79
2022/04/28 06:56:14;;;;;;;20.70;10.27;;;;;;;10.13;62.69;102975.47;5064402;28;20017;-80
2022/04/28 06:58:39;;;;;;;21.42;10.45;;;;;;;10.13;63.42;102980.69;5060427;28;20279;-80
2022/04/28 07:01:05;;;;;;;19.38;10.02;;;;;;;10.14;63.00;102984.19;5079824;28;20082;-79
2022/04/28 07:03:31;;;;;;;20.67;10.13;;;;;;;10.15;62.05;102986.88;5079704;28;20028;-80
2022/04/28 07:05:56;;;;;;;18.90;10.18;;;;;;;10.16;62.61;102993.00;5064108;28;20025;-79
2022/04/28 07:08:21;;;;;;;21.67;10.90;;;;;;;10.17;63.19;102994.81;5064197;28;20052;-80
2022/04/28 07:10:47;;;;;;;20.92;10.15;;;;;;;10.19;63.49;102995.78;5064393;28;20100;-79
2022/04/28 07:13:12;;;;;;;21.73;11.10;;;;;;;10.19;64.22;102999.28;5077958;28;20029;-80
2022/04/28 07:15:38;;;;;;;24.98;10.40;;;;;;;10.22;63.42;103007.28;5070014;28;20052;-79
2022/04/28 07:18:04;;;;;;;23.55;11.50;;;;;;;10.26;63.26;103011.88;5063829;28;20250;-79
2022/04/28 07:20:34;;;;;;;23.73;10.75;;;;;;;10.30;63.73;103009.44;5064100;28;20036;-79
2022/04/28 07:22:59;;;;;;;25.27;11.75;;;;;;;10.32;63.52;103006.13;5064058;28;20044;-79
2022/04/28 07:25:29;;;;;;;25.67;11.52;;;;;;;10.35;63.37;103018.50;5055560;28;20084;-80
2022/04/28 07:27:55;;;;;;;23.70;11.27;;;;;;;10.39;63.13;103017.88;5062357;28;20108;-79
2022/04/28 07:30:21;;;;;;;23.98;11.38;;;;;;;10.41;62.54;103019.75;5063854;28;20052;-79
2022/04/28 07:32:51;;;;;;;23.17;11.00;;;;;;;10.43;62.41;103012.91;5063924;28;20025;-79
2022/04/28 07:35:18;;;;;;;25.48;11.00;;;;;;;10.49;62.66;103021.94;5070101;28;20115;-79
2022/04/28 07:37:44;;;;;;;27.83;11.18;;;;;;;10.54;62.90;103023.06;5078243;28;20155;-79
2022/04/28 07:40:10;;;;;;;25.65;11.75;;;;;;;10.57;63.92;103020.66;5059095;28;20086;-79
2022/04/28 07:42:35;;;;;;;21.92;11.02;;;;;;;10.64;62.83;103028.03;5058879;28;20032;-72
2022/04/28 07:45:00;;;;;;;27.08;11.73;;;;;;;10.69;63.56;103026.59;5054377;28;20136;-73
2022/04/28 07:47:29;;;;;;;26.25;11.88;;;;;;;10.74;62.71;103029.47;5049683;28;20053;-73
2022/04/28 07:49:54;;;;;;;25.27;11.60;;;;;;;10.76;62.89;103030.44;5055740;28;20033;-73
2022/04/28 07:52:20;;;;;;;24.67;11.52;;;;;;;10.83;63.83;103032.59;5059820;28;20027;-73
2022/04/28 07:54:45;;;;;;;26.00;11.48;;;;;;;10.89;62.58;103032.97;5051161;28;20317;-73
2022/04/28 07:57:10;;;;;;;29.30;11.60;;;;;;;10.94;62.08;103035.84;5059202;28;20119;-73
2022/04/28 07:59:37;;;;;;;25.13;10.55;;;;;;;10.99;61.66;103038.69;5063571;28;20048;-73
2022/04/28 08:02:03;;;;;;;23.55;10.70;;;;;;;11.03;61.54;103030.25;5063304;28;20098;-73
2022/04/28 08:04:29;;;;;;;21.77;10.63;;;;;;;11.09;62.34;103036.72;5051212;28;20033;-73
2022/04/28 08:06:55;;;;;;;28.27;11.85;;;;;;;11.13;61.19;103036.06;5063369;28;20048;-73
2022/04/28 08:09:20;;;;;;;26.95;11.40;;;;;;;11.19;60.11;103043.34;5063110;28;20048;-73
2022/04/28 08:11:46;;;;;;;28.17;11.48;;;;;;;11.23;60.67;103044.44;5063169;28;20039;-73
2022/04/28 08:14:11;;;;;;;35.40;12.25;;;;;;;11.30;63.02;103041.34;5057414;28;20013;-73
2022/04/28 08:16:37;;;;;;;29.08;11.77;;;;;;;11.36;61.70;103048.63;5045778;28;20026;-72
2022/04/28 08:19:03;;;;;;;35.60;12.98;;;;;;;11.42;61.67;103049.84;5059660;28;20276;-72
2022/04/28 08:21:29;;;;;;;30.45;12.07;;;;;;;11.46;61.64;103046.59;5063033;28;20029;-72
2022/04/28 08:23:54;;;;;;;28.25;11.88;;;;;;;11.51;61.37;103049.44;5062841;28;20084;-72
2022/04/28 08:26:19;;;;;;;31.35;13.00;;;;;;;11.59;63.11;103053.41;5062467;28;20049;-72
2022/04/28 08:28:45;;;;;;;34.95;12.77;;;;;;;11.66;61.53;103049.41;5062876;28;20021;-72
2022/04/28 08:31:10;;;;;;;30.15;12.93;;;;;;;11.70;59.60;103053.97;5061973;28;20179;-72
2022/04/28 08:33:35;;;;;;;30.27;12.55;;;;;;;11.77;59.79;103055.22;5062842;28;20091;-72
2022/04/28 08:36:01;;;;;;;23.67;11.23;;;;;;;11.83;58.92;103055.53;5062951;28;20044;-72
2022/04/28 08:38:27;;;;;;;29.73;12.55;;;;;;;11.88;59.96;103059.31;5062924;28;20033;-72
2022/04/28 08:41:00;;;;;;;29.95;12.68;;;;;;;11.95;59.38;103060.59;5062914;28;20024;-72
2022/04/28 08:43:28;;;;;;;32.95;12.95;;;;;;;11.92;56.45;103056.06;5073185;28;20037;-72
2022/04/28 08:48:51;;;;;;;35.60;13.98;;;;;;;11.95;58.28;103053.63;5062747;28;20032;-73
2022/04/28 08:51:18;;;;;;;31.38;13.25;;;;;;;12.02;58.05;103056.56;5062826;28;20139;-73
2022/04/28 08:53:47;;;;;;;33.47;13.75;;;;;;;12.08;59.39;103059.50;5062752;28;20087;-73
2022/04/28 08:56:13;;;;;;;38.92;14.73;;;;;;;12.14;58.24;103057.22;5062700;28;20044;-73
2022/04/28 08:58:39;;;;;;;33.25;14.07;;;;;;;12.20;59.61;103057.53;5056256;28;20053;-73
2022/04/28 09:01:04;;;;;;;38.67;14.48;;;;;;;12.26;59.10;103051.75;5062659;28;20168;-73
2022/04/28 09:03:29;;;;;;;35.75;14.55;;;;;;;12.30;57.53;103054.59;5062578;28;20040;-73
2022/04/28 09:05:55;;;;;;;37.60;15.73;;;;;;;12.38;58.56;103056.72;5062784;28;20033;-73
2022/04/28 09:08:20;;;;;;;37.55;14.48;;;;;;;12.44;58.19;103057.94;5055720;28;20029;-73
2022/04/28 09:10:46;;;;;;;31.13;13.88;;;;;;;12.52;58.10;103058.31;5062553;28;20055;-73
2022/04/28 09:15:56;;;;;;;37.90;15.20;;;;;;;12.64;58.22;103055.44;5059126;28;20040;-73
2022/04/28 09:18:22;;;;;;;34.60;14.63;;;;;;;12.63;55.68;103057.16;5057084;28;20049;-73
2022/04/28 09:20:49;;;;;;;39.50;15.38;;;;;;;12.69;57.23;103057.47;5062641;28;20052;-73
2022/04/28 09:23:15;;;;;;;36.75;14.93;;;;;;;12.74;56.47;103054.19;5061548;28;20045;-72
2022/04/28 09:25:43;;;;;;;33.90;15.50;;;;;;;12.76;55.22;103057.75;5055994;28;20089;-72
2022/04/28 09:28:10;;;;;;;35.67;15.10;;;;;;;12.80;55.15;103047.56;5053826;28;20021;-73
2022/04/28 09:30:49;;;;;;;29.85;13.95;;;;;;;12.89;56.84;103047.09;5062091;28;20032;-72
2022/04/28 09:33:15;;;;;;;38.83;15.65;;;;;;;12.98;56.98;103047.53;5062137;28;20044;-73
2022/04/28 09:35:52;;;;;;;34.70;15.18;;;;;;;12.97;53.84;103044.84;5062212;28;20028;-72
2022/04/28 09:38:18;;;;;;;35.03;15.57;;;;;;;12.96;53.91;103038.75;5060202;28;20061;-72
2022/04/28 09:43:32;;;;;;;31.95;14.25;;;;;;;13.11;58.22;103038.59;5065958;28;20075;-72
2022/04/28 09:45:58;;;;;;;32.83;15.13;;;;;;;13.17;55.85;103036.25;5065886;28;20032;-72
2022/04/28 09:48:27;;;;;;;36.10;15.38;;;;;;;13.18;53.45;103035.44;5065731;28;20074;-72
2022/04/28 09:50:59;;;;;;;33.63;14.82;;;;;;;13.23;53.64;103040.88;5065987;28;20049;-72
2022/04/28 09:53:25;;;;;;;34.97;15.30;;;;;;;13.29;53.52;103037.66;5057641;28;20032;-72
2022/04/28 09:55:54;;;;;;;32.20;15.43;;;;;;;13.39;55.15;103035.56;5081320;28;20053;-72
2022/04/28 09:58:20;;;;;;;37.07;15.43;;;;;;;13.47;52.41;103040.28;5065702;28;20020;-72
2022/04/28 10:00:46;;;;;;;34.85;14.05;;;;;;;13.49;53.74;103039.53;5065637;28;20036;-72
2022/04/28 10:03:12;;;;;;;30.73;13.55;;;;;;;13.60;53.44;103029.56;5065534;28;20045;-72
2022/04/28 10:05:38;;;;;;;35.15;14.98;;;;;;;13.68;52.91;103025.56;5066090;28;20016;-72
2022/04/28 10:08:05;;;;;;;32.33;15.10;;;;;;;13.79;53.33;103019.91;5064453;28;20025;-72
2022/04/28 10:10:31;;;;;;;32.20;14.68;;;;;;;13.87;54.68;103018.53;5065338;28;20029;-72
2022/04/28 10:12:59;;;;;;;35.67;14.38;;;;;;;13.95;51.72;103013.63;5065108;28;20177;-72
2022/04/28 10:15:27;;;;;;;31.48;15.13;;;;;;;13.96;50.58;103018.06;5065400;28;20057;-72
2022/04/28 10:18:16;;;;;;;36.05;15.50;;;;;;;14.04;51.95;103021.94;5051083;28;20045;-73
2022/04/28 10:20:45;;;;;;;38.45;15.27;;;;;;;14.06;51.52;103013.31;5065249;28;20025;-73
2022/04/28 10:23:12;;;;;;;34.33;15.35;;;;;;;14.13;51.42;103021.44;5065081;28;20064;-73
2022/04/28 10:34:12;;;;;;;39.35;16.63;;;;;;;14.22;49.35;103014.88;5053828;28;20164;-73
2022/04/28 10:36:55;;;;;;;38.97;16.40;;;;;;;14.22;49.95;103016.59;5062800;28;20045;-73
2022/04/28 10:39:40;;;;;;;36.88;15.93;;;;;;;14.32;52.25;103007.41;5064678;28;20285;-73
2022/04/28 10:42:20;;;;;;;38.83;16.52;;;;;;;14.42;51.39;103012.19;5064771;28;20207;-73
2022/04/28 10:44:57;;;;;;;36.45;17.05;;;;;;;14.43;49.40;103004.41;5064946;28;20080;-73
2022/04/28 10:47:43;;;;;;;38.15;16.58;;;;;;;14.47;50.03;103012.38;5064758;28;20017;-73
2022/04/28 10:50:31;;;;;;;41.50;17.23;;;;;;;14.48;49.41;103009.81;5051201;28;20036;-72
2022/04/28 10:53:05;;;;;;;40.65;17.13;;;;;;;14.50;50.63;103008.19;5064633;28;20074;-72
2022/04/28 10:55:53;;;;;;;41.08;17.40;;;;;;;14.58;51.37;103000.63;5065080;28;20013;-72
2022/04/28 10:58:20;;;;;;;35.33;16.67;;;;;;;14.69;52.18;103003.75;5061400;28;20057;-73
2022/04/28 11:01:00;;;;;;;37.35;16.52;;;;;;;14.71;50.25;102996.81;5064576;28;20183;-73
2022/04/28 11:03:57;;;;;;;38.13;16.25;;;;;;;14.72;50.39;103001.25;5062607;28;20048;-72
2022/04/28 11:06:38;;;;;;;40.00;18.05;;;;;;;14.75;48.69;102997.00;5079769;28;20028;-73
2022/04/28 11:09:06;;;;;;;41.67;18.00;;;;;;;14.77;48.41;102997.06;5064682;28;20021;-73
2022/04/28 11:11:43;;;;;;;41.58;17.60;;;;;;;14.79;49.36;102984.91;5064231;28;20036;-73
2022/04/28 11:14:08;;;;;;;40.65;18.20;;;;;;;14.84;49.95;102978.09;5063931;28;20025;-72
2022/04/28 11:16:35;;;;;;;41.92;17.70;;;;;;;14.89;49.60;102986.19;5062555;28;20031;-72
2022/04/28 11:19:02;;;;;;;41.05;17.92;;;;;;;15.01;53.25;102984.03;5064069;28;20040;-72
2022/04/28 11:21:28;;;;;;;40.58;18.10;;;;;;;15.06;49.32;102985.13;5063921;28;20276;-72
2022/04/28 11:23:55;;;;;;;35.88;16.33;;;;;;;15.11;51.56;102991.44;5064050;28;20354;-72
2022/04/28 11:26:24;;;;;;;39.80;18.70;;;;;;;15.23;51.25;102984.88;5052632;28;20225;-72
2022/04/28 11:28:51;;;;;;;38.05;17.33;;;;;;;15.24;48.54;102981.44;5064013;28;20283;-72
2022/04/28 11:31:18;;;;;;;37.42;18.13;;;;;;;15.27;49.11;102971.94;5063919;28;20021;-73
2022/04/28 11:33:45;;;;;;;37.38;17.52;;;;;;;15.34;49.51;102980.94;5052426;28;20096;-72
2022/04/28 11:36:19;;;;;;;40.10;18.67;;;;;;;15.32;47.77;102974.72;5062114;28;20086;-73
2022/04/28 11:38:53;;;;;;;42.05;18.15;;;;;;;15.36;49.92;102970.50;5063571;28;20264;-73
2022/04/28 11:41:31;;;;;;;41.83;19.30;;;;;;;15.34;48.08;102977.41;5078253;28;20267;-72
2022/04/28 11:44:26;;;;;;;38.20;18.40;;;;;;;15.33;49.88;102970.38;5063236;28;20043;-73
2022/04/28 11:46:52;;;;;;;37.50;18.17;;;;;;;15.29;49.07;102966.72;5059140;28;20100;-73
2022/04/28 11:49:18;;;;;;;43.13;18.52;;;;;;;15.38;51.35;102971.44;5063547;28;20029;-73